createdAt,value
2022-11-23T00:01:35.556Z,106.72
2022-11-23T00:04:12.284Z,88.38
2022-11-23T00:06:40.401Z,99.82
2022-11-23T00:09:08.170Z,99.38
2022-11-23T00:11:36.324Z,97.32
2022-11-23T00:14:03.874Z,99.40
2022-11-23T00:16:31.473Z,100.45
2022-11-23T00:19:02.961Z,105.93
2022-11-23T00:21:34.105Z,100.13
2022-11-23T00:24:01.621Z,99.88
2022-11-23T00:26:28.945Z,97.35
2022-11-23T00:29:00.697Z,102.82
2022-11-23T00:31:27.947Z,104.38
2022-11-23T00:33:59.997Z,104.85
2022-11-23T00:36:28.037Z,94.47
2022-11-23T00:38:55.634Z,107.78
2022-11-23T00:41:25.834Z,101.32
2022-11-23T00:43:53.219Z,101.72
2022-11-23T00:46:31.903Z,106.90
2022-11-23T00:49:01.796Z,105.28
2022-11-23T00:51:34.548Z,111.35
2022-11-23T00:54:03.101Z,102.78
2022-11-23T00:56:31.065Z,105.78
2022-11-23T00:59:08.778Z,105.50
2022-11-23T01:01:39.636Z,111.32
2022-11-23T01:04:08.133Z,123.25
2022-11-23T01:06:40.210Z,115.50
2022-11-23T01:09:25.122Z,110.50
2022-11-23T01:11:53.416Z,115.93
2022-11-23T01:14:21.720Z,111.93
2022-11-23T01:16:49.491Z,106.53
2022-11-23T01:19:20.270Z,121.75
2022-11-23T01:21:52.642Z,110.82
2022-11-23T01:24:22.396Z,115.20
2022-11-23T01:26:56.538Z,115.50
2022-11-23T01:29:24.490Z,114.85
2022-11-23T01:31:51.553Z,112.50
2022-11-23T01:34:18.834Z,110.35
2022-11-23T01:36:48.865Z,112.82
2022-11-23T01:39:15.902Z,116.70
2022-11-23T01:41:45.441Z,117.00
2022-11-23T01:44:35.428Z,120.18
2022-11-23T01:47:10.725Z,118.90
2022-11-23T01:49:38.843Z,118.97
2022-11-23T01:52:16.200Z,118.47
2022-11-23T01:54:53.664Z,118.35
2022-11-23T01:57:33.099Z,122.00
2022-11-23T02:00:00.632Z,116.82
2022-11-23T02:02:31.904Z,121.70
2022-11-23T02:05:01.340Z,114.50
2022-11-23T02:07:31.485Z,110.47
2022-11-23T02:09:58.910Z,119.82
2022-11-23T02:12:25.960Z,126.95
2022-11-23T02:14:53.045Z,106.72
2022-11-23T02:17:20.116Z,114.82
2022-11-23T02:20:06.327Z,117.68
2022-11-23T02:22:52.276Z,108.70
2022-11-23T02:25:40.881Z,116.07
2022-11-23T02:28:07.924Z,113.38
2022-11-23T02:30:36.758Z,113.32
2022-11-23T02:33:07.481Z,107.75
2022-11-23T02:35:35.123Z,114.28
2022-11-23T02:38:08.084Z,124.32
2022-11-23T02:40:39.173Z,117.10
2022-11-23T02:45:57.614Z,119.85
2022-11-23T02:48:25.048Z,119.10
2022-11-23T02:50:52.660Z,110.03
2022-11-23T02:53:20.119Z,114.40
2022-11-23T02:55:49.779Z,117.38
2022-11-23T02:58:16.765Z,123.35
2022-11-23T03:00:48.361Z,115.35
2022-11-23T03:03:40.440Z,112.45
2022-11-23T03:06:07.463Z,108.00
2022-11-23T03:08:34.448Z,111.13
2022-11-23T03:11:02.445Z,113.80
2022-11-23T03:13:29.529Z,117.95
2022-11-23T03:15:57.083Z,118.93
2022-11-23T03:18:24.066Z,123.97
2022-11-23T03:20:51.076Z,123.60
2022-11-23T03:23:18.658Z,127.68
2022-11-23T03:25:45.725Z,120.72
2022-11-23T03:28:15.170Z,117.43
2022-11-23T03:30:43.867Z,120.80
2022-11-23T03:33:10.846Z,124.70
2022-11-23T03:35:38.753Z,126.97
2022-11-23T03:38:05.878Z,118.80
2022-11-23T03:40:32.876Z,130.15
2022-11-23T03:43:01.431Z,136.20
2022-11-23T03:45:28.476Z,143.23
2022-11-23T03:47:55.621Z,141.80
2022-11-23T03:50:24.707Z,137.65
2022-11-23T03:52:52.004Z,139.95
2022-11-23T03:55:18.959Z,136.95
2022-11-23T03:57:49.120Z,140.52
2022-11-23T04:00:16.956Z,133.00
2022-11-23T04:02:44.204Z,154.93
2022-11-23T04:05:11.226Z,138.98
2022-11-23T04:07:38.341Z,152.32
2022-11-23T04:10:06.044Z,139.95
2022-11-23T04:12:35.199Z,143.93
2022-11-23T04:15:02.185Z,145.93
2022-11-23T04:17:29.563Z,145.88
2022-11-23T04:19:56.615Z,166.18
2022-11-23T04:22:23.631Z,154.63
2022-11-23T04:24:50.575Z,143.60
2022-11-23T04:27:17.621Z,131.32
2022-11-23T04:29:44.599Z,127.68
2022-11-23T04:32:13.818Z,128.90
2022-11-23T04:34:43.138Z,132.85
2022-11-23T04:37:13.289Z,124.53
2022-11-23T04:39:40.599Z,128.07
2022-11-23T04:42:10.073Z,116.90
2022-11-23T04:44:37.075Z,114.70
2022-11-23T04:47:06.667Z,124.78
2022-11-23T04:49:33.863Z,105.00
2022-11-23T04:52:01.078Z,123.53
2022-11-23T04:54:28.031Z,113.60
2022-11-23T04:56:57.518Z,115.15
2022-11-23T04:59:27.621Z,112.00
2022-11-23T05:01:57.167Z,113.55
2022-11-23T05:04:24.233Z,112.93
2022-11-23T05:06:51.473Z,107.93
2022-11-23T05:09:20.899Z,103.03
2022-11-23T05:11:48.414Z,107.80
2022-11-23T05:14:15.651Z,108.05
2022-11-23T05:16:42.778Z,113.22
2022-11-23T05:19:13.620Z,107.18
2022-11-23T05:21:40.788Z,112.85
2022-11-23T05:24:07.929Z,108.35
2022-11-23T05:26:34.917Z,113.07
2022-11-23T05:29:01.921Z,77.78
2022-11-23T05:31:28.867Z,108.90
2022-11-23T05:33:55.884Z,97.07
2022-11-23T05:36:22.968Z,98.22
2022-11-23T05:38:50.049Z,111.03
2022-11-23T05:41:19.103Z,106.57
2022-11-23T05:43:49.085Z,110.05
2022-11-23T05:46:16.341Z,105.65
2022-11-23T05:48:43.332Z,114.57
2022-11-23T05:51:10.403Z,105.57
2022-11-23T05:53:37.370Z,103.32
2022-11-23T05:56:04.520Z,102.82
2022-11-23T05:58:33.789Z,102.43
2022-11-23T06:01:01.793Z,100.32
2022-11-23T06:03:29.014Z,95.43
2022-11-23T06:05:56.197Z,109.35
2022-11-23T06:08:23.162Z,111.68
2022-11-23T06:10:50.151Z,95.68
2022-11-23T06:13:17.121Z,105.57
2022-11-23T06:15:44.069Z,113.93
2022-11-23T06:18:11.115Z,107.68
2022-11-23T06:20:38.245Z,108.53
2022-11-23T06:23:05.214Z,111.22
2022-11-23T06:25:32.224Z,107.35
2022-11-23T06:28:01.594Z,103.40
2022-11-23T06:30:32.490Z,103.40
2022-11-23T06:33:04.684Z,100.00
2022-11-23T06:38:01.267Z,98.85
2022-11-23T06:40:28.991Z,120.60
2022-11-23T06:43:02.173Z,106.30
2022-11-23T06:45:29.315Z,107.60
2022-11-23T06:47:56.909Z,106.75
2022-11-23T06:50:26.418Z,113.22
2022-11-23T06:52:57.767Z,102.15
2022-11-23T06:55:27.431Z,108.97
2022-11-23T06:57:56.305Z,106.60
2022-11-23T07:00:23.351Z,104.10
2022-11-23T07:02:55.188Z,106.88
2022-11-23T07:05:23.623Z,107.20
2022-11-23T07:07:53.808Z,110.65
2022-11-23T07:10:20.847Z,105.85
2022-11-23T07:12:50.856Z,104.45
2022-11-23T07:15:17.883Z,103.63
2022-11-23T07:17:44.911Z,90.25
2022-11-23T07:20:14.999Z,95.30
2022-11-23T07:22:42.031Z,102.35
2022-11-23T07:25:09.774Z,99.80
2022-11-23T07:27:39.238Z,104.95
2022-11-23T07:30:07.224Z,93.03
2022-11-23T07:32:34.227Z,104.88
2022-11-23T07:35:01.175Z,98.85
2022-11-23T07:37:28.198Z,97.97
2022-11-23T07:39:58.273Z,96.35
2022-11-23T07:42:34.468Z,103.25
2022-11-23T07:45:04.610Z,97.80
2022-11-23T07:47:32.100Z,87.38
2022-11-23T07:49:59.204Z,94.70
2022-11-23T07:52:26.335Z,100.90
2022-11-23T07:54:53.267Z,102.07
2022-11-23T07:57:20.202Z,109.70
2022-11-23T07:59:47.204Z,89.47
2022-11-23T08:02:15.818Z,100.57
2022-11-23T08:04:43.282Z,106.35
2022-11-23T08:07:10.723Z,98.10
2022-11-23T08:09:37.825Z,97.22
2022-11-23T08:12:08.123Z,111.72
2022-11-23T08:14:35.597Z,100.03
2022-11-23T08:17:02.843Z,101.63
2022-11-23T08:19:29.813Z,120.57
2022-11-23T08:21:56.753Z,132.80
2022-11-23T08:24:23.721Z,89.05
2022-11-23T08:26:50.686Z,103.97
2022-11-23T08:29:20.672Z,102.88
2022-11-23T08:31:48.024Z,100.88
2022-11-23T08:34:15.043Z,109.57
2022-11-23T08:36:44.462Z,108.38
2022-11-23T08:39:12.537Z,114.03
2022-11-23T08:41:39.534Z,119.20
2022-11-23T08:44:09.807Z,106.40
2022-11-23T08:46:40.129Z,108.25
2022-11-23T08:49:07.686Z,106.70
2022-11-23T08:51:34.822Z,93.82
2022-11-23T08:54:02.003Z,97.38
2022-11-23T08:56:29.148Z,107.65
2022-11-23T08:58:56.112Z,103.78
2022-11-23T09:01:23.354Z,114.80
2022-11-23T09:03:50.533Z,102.97
2022-11-23T09:06:20.480Z,103.43
2022-11-23T09:08:47.483Z,93.05
2022-11-23T09:11:18.136Z,103.80
2022-11-23T09:13:45.212Z,107.68
2022-11-23T09:16:12.180Z,99.35
2022-11-23T09:18:41.175Z,86.22
2022-11-23T09:21:10.523Z,97.30
2022-11-23T09:23:39.536Z,92.40
2022-11-23T09:26:10.522Z,89.13
2022-11-23T09:28:43.095Z,93.05
2022-11-23T09:31:13.819Z,83.80
2022-11-23T09:33:40.766Z,88.95
2022-11-23T09:36:08.237Z,95.90
2022-11-23T09:41:55.237Z,83.63
2022-11-23T09:44:40.853Z,89.80
2022-11-23T09:47:46.927Z,91.30
2022-11-23T09:51:02.882Z,95.90
2022-11-23T09:54:12.380Z,134.98
2022-11-23T09:56:46.282Z,102.50
2022-11-23T09:59:33.799Z,85.50
2022-11-23T10:02:01.584Z,85.65
2022-11-23T10:04:35.597Z,113.47
2022-11-23T10:07:39.767Z,115.65
2022-11-23T10:10:37.954Z,106.32
2022-11-23T10:13:23.311Z,86.05
2022-11-23T10:16:17.820Z,101.18
2022-11-23T10:19:15.081Z,91.75
2022-11-23T10:22:08.998Z,113.15
2022-11-23T10:24:45.961Z,84.45
2022-11-23T10:27:17.868Z,93.97
2022-11-23T10:29:45.624Z,93.32
2022-11-23T10:32:35.489Z,80.55
2022-11-23T10:35:16.721Z,82.63
2022-11-23T10:37:43.955Z,91.90
2022-11-23T10:40:25.956Z,82.70
2022-11-23T10:43:01.774Z,77.20
2022-11-23T10:45:31.877Z,83.95
2022-11-23T10:48:00.506Z,80.97
2022-11-23T10:50:37.558Z,88.35
2022-11-23T10:53:26.365Z,89.25
2022-11-23T10:55:59.370Z,80.82
2022-11-23T10:58:30.158Z,83.43
2022-11-23T11:01:14.474Z,79.47
2022-11-23T11:03:41.992Z,77.03
2022-11-23T11:06:10.967Z,84.18
2022-11-23T11:08:54.188Z,78.68
2022-11-23T11:11:33.711Z,74.75
2022-11-23T11:14:19.729Z,80.43
2022-11-23T11:16:55.987Z,85.10
2022-11-23T11:19:30.243Z,94.07
2022-11-23T11:22:00.202Z,84.10
2022-11-23T11:24:43.613Z,74.45
2022-11-23T11:27:22.355Z,71.93
2022-11-23T11:29:54.711Z,74.65
2022-11-23T11:32:34.386Z,73.93
2022-11-23T11:35:27.209Z,68.72
2022-11-23T11:38:11.590Z,75.38
2022-11-23T11:40:48.182Z,78.60
2022-11-23T11:43:29.422Z,78.75
2022-11-23T11:46:28.707Z,72.15
2022-11-23T11:49:21.511Z,73.00
2022-11-23T11:52:02.323Z,77.28
2022-11-23T11:54:32.070Z,75.60
2022-11-23T11:57:27.184Z,78.25
2022-11-23T11:59:58.247Z,80.13
2022-11-23T12:02:40.026Z,79.38
2022-11-23T12:05:27.004Z,87.05
2022-11-23T12:08:10.055Z,83.60
2022-11-23T12:10:39.080Z,84.25
2022-11-23T12:13:14.069Z,83.15
2022-11-23T12:15:54.267Z,78.38
2022-11-23T12:18:36.123Z,73.25
2022-11-23T12:21:28.211Z,85.80
2022-11-23T12:24:22.424Z,73.75
2022-11-23T12:27:01.743Z,119.70
2022-11-23T12:29:40.580Z,85.30
2022-11-23T12:32:28.814Z,86.55
2022-11-23T12:35:28.828Z,92.70
2022-11-23T12:38:20.823Z,70.55
2022-11-23T12:41:23.060Z,75.38
2022-11-23T12:44:07.955Z,81.43
2022-11-23T12:46:40.712Z,75.53
2022-11-23T12:50:16.571Z,129.82
2022-11-23T12:53:29.988Z,90.82
2022-11-23T12:56:23.279Z,84.72
2022-11-23T12:58:53.400Z,74.45
2022-11-23T13:01:35.283Z,79.85
2022-11-23T13:04:28.421Z,77.03
2022-11-23T13:07:35.994Z,77.85
2022-11-23T13:10:26.628Z,74.85
2022-11-23T13:13:07.807Z,70.65
2022-11-23T13:16:17.658Z,75.03
2022-11-23T13:19:29.479Z,71.85
2022-11-23T13:21:59.089Z,72.28
2022-11-23T13:24:38.724Z,72.10
2022-11-23T13:27:14.786Z,79.60
2022-11-23T13:29:50.851Z,81.93
2022-11-23T13:32:39.603Z,72.32
2022-11-23T13:35:21.707Z,62.95
2022-11-23T13:37:57.707Z,73.10
2022-11-23T13:40:29.476Z,64.85
2022-11-23T13:43:17.163Z,75.63
2022-11-23T13:46:16.174Z,74.85
2022-11-23T13:48:56.767Z,74.35
2022-11-23T13:51:35.584Z,79.70
2022-11-23T13:54:20.876Z,90.82
2022-11-23T13:57:01.572Z,75.03
2022-11-23T13:59:34.762Z,75.25
2022-11-23T14:02:07.864Z,81.80
2022-11-23T14:04:43.961Z,72.47
2022-11-23T14:07:43.200Z,83.70
2022-11-23T14:10:24.648Z,82.28
2022-11-23T14:13:16.720Z,81.00
2022-11-23T14:15:55.257Z,75.28
2022-11-23T14:18:43.230Z,90.55
2022-11-23T14:21:48.190Z,82.85
2022-11-23T14:24:20.749Z,77.68
2022-11-23T14:27:46.300Z,77.22
2022-11-23T14:30:49.417Z,76.10
2022-11-23T14:34:00.673Z,78.10
2022-11-23T14:37:18.679Z,74.60
2022-11-23T14:40:03.173Z,78.03
2022-11-23T14:42:31.347Z,68.90
2022-11-23T14:45:06.766Z,71.38
2022-11-23T14:47:33.898Z,60.65
2022-11-23T14:50:00.918Z,69.82
2022-11-23T14:52:36.875Z,73.13
2022-11-23T14:55:06.317Z,62.67
2022-11-23T14:57:45.398Z,63.55
2022-11-23T15:00:48.019Z,73.50
2022-11-23T15:06:17.292Z,62.60
2022-11-23T15:09:17.550Z,67.75
2022-11-23T15:11:44.563Z,81.00
2022-11-23T15:14:26.705Z,80.70
2022-11-23T15:16:55.913Z,95.55
2022-11-23T15:19:30.303Z,79.40
2022-11-23T15:21:57.791Z,93.80
2022-11-23T15:24:31.060Z,117.47
2022-11-23T15:27:12.061Z,81.03
2022-11-23T15:29:41.990Z,100.80
2022-11-23T15:32:34.384Z,93.95
2022-11-23T15:35:10.405Z,82.32
2022-11-23T15:37:45.727Z,82.82
2022-11-23T15:40:17.968Z,80.60
2022-11-23T15:45:39.436Z,89.47
2022-11-23T15:48:18.795Z,78.95
2022-11-23T15:51:00.266Z,89.97
2022-11-23T15:53:53.725Z,62.33
2022-11-23T15:56:38.745Z,82.68
2022-11-23T15:59:33.731Z,85.43
2022-11-23T16:02:02.990Z,73.00
2022-11-23T16:04:41.190Z,77.38
2022-11-23T16:07:27.893Z,76.25
2022-11-23T16:10:16.017Z,81.93
2022-11-23T16:12:58.904Z,82.43
2022-11-23T16:15:46.402Z,87.18
2022-11-23T16:18:15.313Z,91.82
2022-11-23T16:20:50.338Z,89.70
2022-11-23T16:23:27.908Z,91.00
2022-11-23T16:26:04.996Z,105.88
2022-11-23T16:28:55.261Z,93.22
2022-11-23T16:31:40.820Z,95.25
2022-11-23T16:34:16.520Z,83.38
2022-11-23T16:36:43.811Z,96.47
2022-11-23T16:39:11.444Z,80.90
2022-11-23T16:41:39.165Z,75.47
2022-11-23T16:44:06.159Z,82.32
2022-11-23T16:46:33.666Z,90.25
2022-11-23T16:49:03.325Z,93.72
2022-11-23T16:51:32.849Z,93.97
2022-11-23T16:54:18.058Z,82.53
2022-11-23T16:56:47.098Z,84.05
2022-11-23T16:59:18.591Z,74.57
2022-11-23T17:01:56.703Z,66.82
2022-11-23T17:04:27.010Z,80.22
2022-11-23T17:06:54.184Z,83.45
2022-11-23T17:09:21.179Z,94.72
2022-11-23T17:11:50.983Z,84.57
2022-11-23T17:14:25.327Z,73.20
2022-11-23T17:16:55.394Z,72.05
2022-11-23T17:19:23.233Z,78.50
2022-11-23T17:21:52.765Z,79.28
2022-11-23T17:24:21.512Z,83.60
2022-11-23T17:26:53.176Z,96.40
2022-11-23T17:29:21.280Z,96.22
2022-11-23T17:31:50.353Z,79.80
2022-11-23T17:34:19.989Z,73.03
2022-11-23T17:36:47.895Z,72.47
2022-11-23T17:39:21.245Z,71.55
2022-11-23T17:41:48.750Z,67.88
2022-11-23T17:44:16.932Z,75.28
2022-11-23T17:46:45.328Z,78.35
2022-11-23T17:49:16.272Z,73.05
2022-11-23T17:51:45.716Z,80.47
2022-11-23T17:54:12.898Z,72.88
2022-11-23T17:56:40.093Z,67.88
2022-11-23T17:59:07.273Z,75.47
2022-11-23T18:01:34.354Z,77.80
2022-11-23T18:04:01.495Z,97.18
2022-11-23T18:06:29.540Z,83.70
2022-11-23T18:08:57.093Z,89.80
2022-11-23T18:11:28.584Z,87.80
2022-11-23T18:13:55.616Z,74.20
2022-11-23T18:16:23.685Z,74.50
2022-11-23T18:18:51.149Z,75.65
2022-11-23T18:21:19.810Z,83.93
2022-11-23T18:23:49.941Z,77.53
2022-11-23T18:26:22.818Z,84.60
2022-11-23T18:28:50.342Z,122.88
2022-11-23T18:31:17.791Z,89.07
2022-11-23T18:33:45.943Z,83.38
2022-11-23T18:36:13.546Z,101.90
2022-11-23T18:38:41.100Z,114.85
2022-11-23T18:41:08.124Z,86.93
2022-11-23T18:43:38.197Z,86.30
2022-11-23T18:46:08.208Z,92.20
2022-11-23T18:48:35.237Z,92.93
2022-11-23T18:51:03.560Z,102.72
2022-11-23T18:53:32.651Z,84.25
2022-11-23T18:56:04.326Z,79.25
2022-11-23T18:58:38.869Z,82.30
2022-11-23T19:01:19.265Z,90.82
2022-11-23T19:03:49.535Z,89.53
2022-11-23T19:06:19.678Z,84.53
2022-11-23T19:08:57.505Z,85.43
2022-11-23T19:11:28.728Z,91.22
2022-11-23T19:13:58.817Z,100.15
2022-11-23T19:16:31.444Z,89.28
2022-11-23T19:19:05.072Z,93.60
2022-11-23T19:21:40.787Z,93.15
2022-11-23T19:24:09.817Z,92.57
2022-11-23T19:26:37.422Z,99.30
2022-11-23T19:29:05.114Z,98.07
2022-11-23T19:31:33.221Z,105.40
2022-11-23T19:34:03.761Z,108.68
2022-11-23T19:36:33.403Z,100.57
2022-11-23T19:39:00.659Z,98.38
2022-11-23T19:41:30.700Z,87.32
2022-11-23T19:44:00.011Z,84.32
2022-11-23T19:46:31.121Z,81.88
2022-11-23T19:48:59.191Z,74.78
2022-11-23T19:51:27.455Z,81.55
2022-11-23T19:53:57.735Z,74.57
2022-11-23T19:56:27.716Z,79.75
2022-11-23T19:59:00.208Z,89.18
2022-11-23T20:01:34.014Z,88.90
2022-11-23T20:04:08.694Z,90.05
2022-11-23T20:06:39.234Z,92.00
2022-11-23T20:09:10.422Z,97.03
2022-11-23T20:11:40.466Z,96.55
2022-11-23T20:14:08.228Z,90.50
2022-11-23T20:16:35.415Z,92.60
2022-11-23T20:19:06.467Z,100.05
2022-11-23T20:21:35.073Z,102.53
2022-11-23T20:24:06.362Z,101.47
2022-11-23T20:26:36.520Z,103.00
2022-11-23T20:29:07.829Z,102.82
2022-11-23T20:31:35.586Z,95.63
2022-11-23T20:34:07.040Z,102.00
2022-11-23T20:36:38.467Z,92.90
2022-11-23T20:39:10.677Z,92.70
2022-11-23T20:44:12.374Z,88.53
2022-11-23T20:49:27.344Z,101.72
2022-11-23T20:51:54.302Z,94.40
2022-11-23T20:54:21.616Z,84.53
2022-11-23T20:56:48.567Z,90.28
2022-11-23T20:59:15.881Z,88.18
2022-11-23T21:01:42.897Z,90.88
2022-11-23T21:04:10.117Z,84.47
2022-11-23T21:06:39.883Z,92.90
2022-11-23T21:09:09.728Z,85.97
2022-11-23T21:11:55.664Z,81.90
2022-11-23T21:14:27.899Z,87.00
2022-11-23T21:17:01.262Z,87.13
2022-11-23T21:19:37.845Z,86.70
2022-11-23T21:22:14.213Z,88.47
2022-11-23T21:24:41.821Z,87.18
2022-11-23T21:27:12.881Z,81.40
2022-11-23T21:29:40.431Z,89.32
2022-11-23T21:32:07.559Z,88.40
2022-11-23T21:34:35.224Z,82.80
2022-11-23T21:37:02.585Z,95.45
2022-11-23T21:39:33.105Z,89.05
2022-11-23T21:42:00.252Z,91.65
2022-11-23T21:44:27.336Z,95.35
2022-11-23T21:46:59.233Z,79.65
2022-11-23T21:49:28.406Z,82.57
2022-11-23T21:51:55.530Z,84.05
2022-11-23T21:54:25.654Z,84.82
2022-11-23T21:56:55.100Z,82.88
2022-11-23T21:59:25.770Z,83.57
2022-11-23T22:01:57.483Z,81.10
2022-11-23T22:04:24.774Z,88.45
2022-11-23T22:06:51.872Z,82.40
2022-11-23T22:09:18.960Z,79.00
2022-11-23T22:11:48.668Z,79.32
2022-11-23T22:14:19.398Z,76.45
2022-11-23T22:16:53.768Z,82.18
2022-11-23T22:19:20.917Z,77.78
2022-11-23T22:21:48.300Z,70.35
2022-11-23T22:24:19.591Z,68.25
2022-11-23T22:26:47.806Z,73.72
2022-11-23T22:29:15.811Z,79.88
2022-11-23T22:31:43.979Z,80.80
2022-11-23T22:34:13.793Z,70.90
2022-11-23T22:36:41.261Z,73.07
2022-11-23T22:39:11.470Z,74.40
2022-11-23T22:41:39.013Z,68.60
2022-11-23T22:44:10.959Z,72.68
2022-11-23T22:46:39.121Z,69.90
2022-11-23T22:49:08.867Z,65.03
2022-11-23T22:51:35.943Z,75.18
2022-11-23T22:54:03.615Z,76.38
2022-11-23T22:56:33.684Z,73.05
2022-11-23T22:59:04.388Z,68.75
2022-11-23T23:01:34.955Z,71.43
2022-11-23T23:04:03.096Z,72.47
2022-11-23T23:06:34.996Z,81.60
2022-11-23T23:09:07.418Z,59.55
2022-11-23T23:11:36.532Z,76.22
2022-11-23T23:14:03.763Z,69.80
2022-11-23T23:16:31.311Z,69.07
2022-11-23T23:19:03.654Z,68.90
2022-11-23T23:21:30.850Z,72.75
2022-11-23T23:24:01.314Z,69.90
2022-11-23T23:26:29.603Z,69.30
2022-11-23T23:28:59.917Z,69.32
2022-11-23T23:31:27.689Z,70.20
2022-11-23T23:33:57.275Z,68.53
2022-11-23T23:36:24.959Z,64.93
2022-11-23T23:38:54.880Z,64.57
2022-11-23T23:41:22.023Z,70.25
2022-11-23T23:43:49.362Z,61.20
2022-11-23T23:46:16.947Z,65.53
2022-11-23T23:48:44.636Z,72.22
2022-11-23T23:51:17.946Z,72.25
2022-11-23T23:53:46.422Z,65.68
2022-11-23T23:56:26.309Z,67.82
2022-11-23T23:59:00.343Z,66.35
